createdAt,value
2022-08-17T00:01:51.965Z,23.26
2022-08-17T00:04:40.324Z,23.15
2022-08-17T00:07:27.582Z,23.13
2022-08-17T00:10:14.843Z,23.15
2022-08-17T00:13:08.471Z,23.14
2022-08-17T00:15:59.725Z,23.08
2022-08-17T00:18:57.482Z,23.12
2022-08-17T00:22:31.360Z,23.12
2022-08-17T00:25:09.241Z,23.11
2022-08-17T00:27:56.502Z,23.18
2022-08-17T00:30:52.905Z,23.13
2022-08-17T00:33:43.764Z,23.16
2022-08-17T00:36:31.064Z,23.27
2022-08-17T00:39:18.312Z,23.32
2022-08-17T00:42:16.742Z,23.32
2022-08-17T00:45:07.110Z,23.27
2022-08-17T00:47:54.357Z,23.34
2022-08-17T00:50:49.584Z,23.33
2022-08-17T00:53:41.806Z,23.30
2022-08-17T00:56:34.117Z,23.22
2022-08-17T00:59:25.700Z,23.14
2022-08-17T01:02:15.445Z,23.20
2022-08-17T01:05:02.808Z,23.24
2022-08-17T01:07:50.865Z,23.17
2022-08-17T01:10:57.103Z,23.18
2022-08-17T01:13:49.006Z,23.10
2022-08-17T01:16:37.500Z,23.17
2022-08-17T01:19:28.597Z,23.14
2022-08-17T01:22:18.507Z,23.15
2022-08-17T01:25:08.177Z,23.14
2022-08-17T01:27:55.490Z,23.17
2022-08-17T01:30:56.510Z,23.17
2022-08-17T01:33:44.912Z,23.14
2022-08-17T01:36:32.293Z,23.15
2022-08-17T01:39:33.307Z,23.06
2022-08-17T01:42:30.623Z,23.06
2022-08-17T01:45:23.002Z,23.09
2022-08-17T01:48:11.933Z,23.12
2022-08-17T01:51:00.299Z,23.09
2022-08-17T01:53:51.638Z,23.02
2022-08-17T01:56:47.389Z,23.02
2022-08-17T01:59:35.023Z,23.05
2022-08-17T02:02:30.988Z,23.03
2022-08-17T02:05:19.125Z,23.04
2022-08-17T02:08:20.096Z,22.99
2022-08-17T02:11:12.011Z,22.96
2022-08-17T02:14:03.597Z,22.91
2022-08-17T02:16:51.249Z,22.79
2022-08-17T02:19:38.539Z,22.81
2022-08-17T02:22:27.891Z,22.78
2022-08-17T02:25:18.157Z,22.75
2022-08-17T02:28:05.470Z,22.66
2022-08-17T02:31:01.383Z,22.63
2022-08-17T02:34:03.331Z,22.52
2022-08-17T02:36:53.386Z,22.52
2022-08-17T02:39:40.747Z,22.44
2022-08-17T02:42:34.957Z,22.46
2022-08-17T02:45:24.356Z,22.42
2022-08-17T02:48:11.726Z,22.47
2022-08-17T02:51:00.234Z,22.48
2022-08-17T02:53:47.540Z,22.45
2022-08-17T02:56:34.838Z,22.37
2022-08-17T02:59:22.382Z,22.33
2022-08-17T03:02:11.793Z,22.29
2022-08-17T03:04:58.884Z,22.27
2022-08-17T03:07:46.617Z,22.23
2022-08-17T03:10:34.133Z,22.22
2022-08-17T03:13:22.475Z,22.19
2022-08-17T03:16:09.803Z,22.20
2022-08-17T03:18:57.402Z,22.25
2022-08-17T03:21:44.653Z,22.29
2022-08-17T03:24:31.894Z,22.21
2022-08-17T03:27:19.174Z,22.17
2022-08-17T03:30:08.537Z,22.14
2022-08-17T03:33:00.079Z,22.15
2022-08-17T03:35:47.723Z,21.99
2022-08-17T03:38:38.964Z,22.11
2022-08-17T03:41:26.789Z,22.08
2022-08-17T03:44:14.053Z,22.09
2022-08-17T03:47:19.972Z,22.08
2022-08-17T03:50:27.495Z,22.12
2022-08-17T03:53:35.870Z,22.13
2022-08-17T03:56:41.690Z,22.15
2022-08-17T03:59:29.603Z,22.16
2022-08-17T04:02:24.599Z,22.09
2022-08-17T04:05:11.938Z,22.01
2022-08-17T04:07:59.189Z,22.02
2022-08-17T04:10:46.806Z,22.03
2022-08-17T04:13:34.091Z,22.10
2022-08-17T04:16:21.414Z,22.04
2022-08-17T04:19:08.658Z,22.11
2022-08-17T04:21:57.647Z,22.08
2022-08-17T04:24:44.899Z,22.05
2022-08-17T04:27:32.440Z,22.09
2022-08-17T04:30:19.827Z,22.15
2022-08-17T04:33:14.131Z,22.14
2022-08-17T04:36:04.407Z,22.13
2022-08-17T04:38:51.765Z,22.16
2022-08-17T04:41:57.482Z,22.12
2022-08-17T04:44:44.734Z,22.13
2022-08-17T04:47:31.987Z,22.20
2022-08-17T04:50:19.227Z,22.22
2022-08-17T04:53:06.634Z,22.23
2022-08-17T04:55:54.945Z,22.25
2022-08-17T04:58:45.190Z,22.30
2022-08-17T05:01:34.672Z,22.32
2022-08-17T05:04:34.073Z,22.39
2022-08-17T05:07:24.660Z,22.36
2022-08-17T05:10:13.646Z,22.38
2022-08-17T05:13:02.859Z,22.44
2022-08-17T05:15:54.790Z,22.45
2022-08-17T05:18:42.432Z,22.42
2022-08-17T05:21:29.719Z,22.45
2022-08-17T05:24:40.707Z,22.39
2022-08-17T05:27:24.289Z,22.43
2022-08-17T05:30:17.426Z,22.47
2022-08-17T05:33:07.838Z,22.43
2022-08-17T05:35:57.423Z,22.43
2022-08-17T05:38:44.690Z,22.44
2022-08-17T05:41:31.919Z,22.45
2022-08-17T05:44:19.158Z,22.45
2022-08-17T05:47:06.427Z,22.47
2022-08-17T05:49:58.737Z,22.51
2022-08-17T05:53:10.910Z,22.56
2022-08-17T05:56:30.200Z,22.68
2022-08-17T05:59:34.989Z,22.79
2022-08-17T06:03:12.770Z,22.87
2022-08-17T06:06:14.506Z,22.87
2022-08-17T06:09:33.837Z,22.91
2022-08-17T06:12:42.754Z,22.98
2022-08-17T06:15:42.230Z,22.94
2022-08-17T06:18:44.662Z,22.97
2022-08-17T06:21:38.713Z,23.08
2022-08-17T06:24:43.812Z,23.15
2022-08-17T06:27:53.397Z,23.27
2022-08-17T06:30:59.995Z,23.34
2022-08-17T06:33:49.605Z,23.41
2022-08-17T06:37:01.593Z,23.54
2022-08-17T06:40:32.749Z,23.68
2022-08-17T06:43:22.886Z,23.79
2022-08-17T06:46:21.970Z,23.71
2022-08-17T06:49:33.739Z,23.83
2022-08-17T06:52:46.611Z,23.94
2022-08-17T06:55:51.761Z,24.04
2022-08-17T06:58:41.869Z,24.01
2022-08-17T07:01:34.607Z,23.92
2022-08-17T07:04:28.826Z,23.99
2022-08-17T07:07:38.387Z,23.98
2022-08-17T07:10:27.426Z,24.16
2022-08-17T07:13:53.625Z,24.22
2022-08-17T07:17:10.286Z,24.13
2022-08-17T07:20:05.860Z,24.21
2022-08-17T07:23:00.030Z,24.40
2022-08-17T07:25:49.125Z,24.57
2022-08-17T07:28:36.934Z,24.75
2022-08-17T07:31:28.431Z,24.89
2022-08-17T07:34:15.749Z,24.87
2022-08-17T07:37:05.154Z,24.93
2022-08-17T07:40:14.819Z,24.97
2022-08-17T07:43:05.245Z,25.06
2022-08-17T07:46:16.899Z,24.96
2022-08-17T07:49:04.948Z,24.88
2022-08-17T07:51:52.116Z,24.73
2022-08-17T07:54:42.652Z,24.70
2022-08-17T07:57:33.408Z,24.69
2022-08-17T08:00:27.984Z,24.72
2022-08-17T08:03:31.714Z,24.64
2022-08-17T08:06:23.537Z,24.62
2022-08-17T08:09:28.892Z,24.70
2022-08-17T08:12:25.238Z,24.72
2022-08-17T08:15:23.218Z,24.69
2022-08-17T08:18:54.218Z,24.69
2022-08-17T08:21:55.106Z,24.59
2022-08-17T08:25:07.659Z,24.51
2022-08-17T08:28:15.516Z,24.37
2022-08-17T08:31:14.781Z,24.30
2022-08-17T08:34:53.493Z,24.30
2022-08-17T08:37:49.771Z,24.16
2022-08-17T08:41:07.798Z,24.18
2022-08-17T08:44:08.602Z,24.23
2022-08-17T08:47:21.469Z,24.23
2022-08-17T08:50:37.221Z,24.26
2022-08-17T08:53:29.872Z,24.28
2022-08-17T08:56:53.789Z,24.34
2022-08-17T09:00:22.512Z,24.37
2022-08-17T09:03:51.212Z,24.35
2022-08-17T09:07:01.174Z,24.38
2022-08-17T09:09:59.666Z,24.40
2022-08-17T09:13:10.269Z,24.36
2022-08-17T09:16:05.029Z,24.42
2022-08-17T09:19:00.336Z,24.39
2022-08-17T09:21:55.279Z,24.40
2022-08-17T09:24:54.606Z,24.39
2022-08-17T09:27:51.011Z,24.43
2022-08-17T09:30:46.042Z,24.44
2022-08-17T09:33:39.850Z,24.39
2022-08-17T09:36:40.723Z,24.27
2022-08-17T09:39:39.197Z,24.29
2022-08-17T09:42:58.171Z,24.23
2022-08-17T09:45:51.957Z,24.22
2022-08-17T09:48:45.636Z,24.20
2022-08-17T09:51:40.011Z,24.19
2022-08-17T09:54:39.989Z,24.17
2022-08-17T09:57:49.726Z,23.99
2022-08-17T10:00:40.853Z,24.11
2022-08-17T10:03:52.289Z,24.02
2022-08-17T10:07:11.420Z,24.07
2022-08-17T10:10:14.396Z,24.19
2022-08-17T10:13:12.068Z,24.37
2022-08-17T10:16:22.960Z,24.60
2022-08-17T10:19:20.281Z,24.92
2022-08-17T10:22:37.878Z,25.28
2022-08-17T10:26:00.058Z,25.61
2022-08-17T10:28:50.093Z,25.72
2022-08-17T10:31:45.865Z,25.68
2022-08-17T10:34:55.711Z,25.82
2022-08-17T10:37:57.060Z,25.87
2022-08-17T10:41:21.097Z,25.93
2022-08-17T10:44:45.387Z,26.11
2022-08-17T10:48:04.755Z,26.31
2022-08-17T10:50:55.863Z,26.53
2022-08-17T10:53:43.480Z,26.56
2022-08-17T10:56:43.464Z,26.68
2022-08-17T10:59:36.448Z,26.67
2022-08-17T11:02:31.392Z,26.65
2022-08-17T11:05:43.860Z,26.59
2022-08-17T11:09:06.695Z,26.39
2022-08-17T11:12:09.156Z,26.21
2022-08-17T11:15:14.986Z,26.06
2022-08-17T11:18:11.321Z,26.11
2022-08-17T11:21:43.934Z,26.17
2022-08-17T11:24:47.632Z,26.13
2022-08-17T11:27:36.501Z,26.27
2022-08-17T11:30:52.295Z,26.40
2022-08-17T11:33:42.431Z,26.53
2022-08-17T11:36:35.169Z,26.57
2022-08-17T11:40:01.585Z,26.57
2022-08-17T11:42:57.831Z,26.66
2022-08-17T11:45:53.455Z,26.87
2022-08-17T11:49:11.505Z,26.97
2022-08-17T11:52:01.800Z,27.10
2022-08-17T11:54:49.091Z,27.25
2022-08-17T11:57:55.434Z,27.57
2022-08-17T12:00:45.329Z,27.51
2022-08-17T12:03:33.159Z,27.60
2022-08-17T12:06:39.799Z,27.12
2022-08-17T12:09:34.424Z,26.98
2022-08-17T12:12:33.200Z,26.81
2022-08-17T12:15:29.857Z,26.76
2022-08-17T12:18:24.544Z,26.83
2022-08-17T12:21:30.446Z,26.95
2022-08-17T12:25:08.169Z,27.11
2022-08-17T12:28:04.967Z,27.12
2022-08-17T12:30:54.886Z,26.96
2022-08-17T12:33:47.352Z,26.87
2022-08-17T12:36:35.278Z,26.97
2022-08-17T12:39:25.148Z,27.01
2022-08-17T12:42:23.953Z,27.00
2022-08-17T12:45:31.845Z,27.06
2022-08-17T12:48:25.033Z,27.08
2022-08-17T12:51:12.956Z,27.03
2022-08-17T12:54:00.350Z,26.95
2022-08-17T12:56:47.904Z,27.06
2022-08-17T12:59:41.070Z,27.17
2022-08-17T13:02:37.987Z,27.19
2022-08-17T13:05:27.945Z,27.34
2022-08-17T13:08:28.718Z,27.46
2022-08-17T13:11:18.523Z,27.63
2022-08-17T13:14:10.154Z,27.60
2022-08-17T13:17:00.185Z,27.61
2022-08-17T13:19:50.452Z,27.42
2022-08-17T13:22:38.746Z,27.39
2022-08-17T13:25:27.612Z,27.37
2022-08-17T13:28:36.170Z,27.43
2022-08-17T13:31:51.811Z,27.30
2022-08-17T13:35:11.998Z,27.28
2022-08-17T13:38:04.069Z,27.28
2022-08-17T13:40:52.950Z,27.45
2022-08-17T13:43:50.447Z,27.48
2022-08-17T13:46:38.110Z,27.43
2022-08-17T13:49:41.527Z,27.41
2022-08-17T13:52:43.142Z,27.61
2022-08-17T13:55:31.984Z,27.70
2022-08-17T13:58:32.030Z,27.66
2022-08-17T14:01:41.986Z,27.46
2022-08-17T14:04:34.335Z,27.36
2022-08-17T14:07:30.100Z,27.40
2022-08-17T14:10:18.051Z,27.36
2022-08-17T14:13:06.635Z,27.45
2022-08-17T14:15:56.589Z,27.52
2022-08-17T14:18:56.802Z,27.55
2022-08-17T14:21:46.823Z,27.54
2022-08-17T14:24:41.207Z,27.59
2022-08-17T14:27:33.926Z,27.53
2022-08-17T14:30:30.001Z,27.52
2022-08-17T14:33:24.682Z,27.47
2022-08-17T14:36:12.155Z,27.46
2022-08-17T14:38:59.402Z,27.31
2022-08-17T14:41:47.167Z,27.39
2022-08-17T14:44:34.520Z,27.44
2022-08-17T14:47:22.261Z,27.29
2022-08-17T14:50:12.035Z,27.54
2022-08-17T14:53:10.026Z,27.58
2022-08-17T14:55:57.293Z,27.72
2022-08-17T14:58:44.581Z,27.61
2022-08-17T15:01:32.153Z,27.50
2022-08-17T15:04:19.499Z,27.59
2022-08-17T15:07:07.077Z,27.65
2022-08-17T15:09:54.363Z,27.75
2022-08-17T15:12:42.309Z,27.87
2022-08-17T15:15:29.826Z,27.64
2022-08-17T15:18:17.577Z,27.48
2022-08-17T15:21:06.107Z,27.59
2022-08-17T15:23:53.383Z,27.67
2022-08-17T15:26:40.718Z,27.78
2022-08-17T15:29:28.697Z,27.88
2022-08-17T15:32:29.473Z,27.84
2022-08-17T15:35:16.713Z,27.73
2022-08-17T15:38:11.729Z,27.55
2022-08-17T15:40:59.607Z,27.37
2022-08-17T15:43:50.032Z,27.19
2022-08-17T15:46:37.343Z,26.94
2022-08-17T15:49:27.533Z,27.06
2022-08-17T15:52:40.499Z,27.27
2022-08-17T15:55:30.485Z,27.28
2022-08-17T15:58:17.762Z,27.39
2022-08-17T16:01:14.843Z,27.50
2022-08-17T16:04:07.057Z,27.44
2022-08-17T16:06:54.632Z,27.46
2022-08-17T16:09:41.956Z,27.36
2022-08-17T16:12:29.339Z,27.34
2022-08-17T16:15:17.614Z,27.34
2022-08-17T16:18:05.162Z,27.27
2022-08-17T16:20:53.209Z,27.10
2022-08-17T16:23:40.480Z,27.15
2022-08-17T16:26:29.973Z,27.27
2022-08-17T16:29:17.805Z,27.32
2022-08-17T16:32:19.722Z,27.34
2022-08-17T16:35:21.935Z,27.25
2022-08-17T16:38:09.545Z,27.19
2022-08-17T16:40:56.833Z,27.08
2022-08-17T16:43:45.518Z,26.94
2022-08-17T16:46:33.417Z,26.82
2022-08-17T16:49:26.768Z,26.68
2022-08-17T16:52:32.285Z,26.48
2022-08-17T16:55:22.089Z,26.44
2022-08-17T16:58:09.865Z,26.30
2022-08-17T17:00:59.891Z,26.35
2022-08-17T17:03:57.677Z,26.37
2022-08-17T17:07:05.757Z,26.31
2022-08-17T17:09:55.387Z,26.37
2022-08-17T17:13:03.095Z,26.30
2022-08-17T17:16:16.962Z,26.26
2022-08-17T17:19:35.360Z,26.22
2022-08-17T17:22:48.044Z,26.11
2022-08-17T17:25:59.109Z,26.13
2022-08-17T17:28:47.289Z,26.15
2022-08-17T17:31:47.982Z,26.10
2022-08-17T17:34:37.757Z,26.11
2022-08-17T17:37:32.235Z,25.93
2022-08-17T17:40:31.777Z,25.85
2022-08-17T17:43:38.236Z,25.83
2022-08-17T17:46:33.260Z,25.85
2022-08-17T17:49:20.857Z,25.69
2022-08-17T17:52:18.427Z,25.62
2022-08-17T17:55:27.918Z,25.74
2022-08-17T17:58:40.690Z,25.67
2022-08-17T18:01:53.821Z,25.64
2022-08-17T18:05:02.274Z,25.47
2022-08-17T18:08:32.269Z,25.45
2022-08-17T18:11:34.869Z,25.34
2022-08-17T18:14:34.419Z,25.30
2022-08-17T18:17:22.094Z,25.29
2022-08-17T18:20:09.386Z,25.27
2022-08-17T18:22:56.677Z,25.24
2022-08-17T18:25:47.903Z,25.06
2022-08-17T18:28:41.069Z,25.13
2022-08-17T18:31:31.492Z,25.04
2022-08-17T18:34:46.047Z,24.99
2022-08-17T18:37:34.678Z,24.99
2022-08-17T18:40:35.651Z,24.93
2022-08-17T18:43:44.379Z,24.84
2022-08-17T18:46:39.032Z,24.83
2022-08-17T18:49:28.711Z,24.77
2022-08-17T18:52:21.263Z,24.67
2022-08-17T18:55:13.003Z,24.65
2022-08-17T18:58:16.338Z,24.59
2022-08-17T19:01:18.376Z,24.45
2022-08-17T19:04:13.067Z,24.44
2022-08-17T19:07:24.453Z,24.37
2022-08-17T19:10:28.087Z,24.32
2022-08-17T19:13:23.887Z,24.25
2022-08-17T19:16:17.975Z,24.21
2022-08-17T19:19:14.233Z,24.20
2022-08-17T19:22:21.373Z,24.16
2022-08-17T19:25:27.031Z,24.12
2022-08-17T19:28:24.756Z,24.12
2022-08-17T19:31:22.102Z,24.04
2022-08-17T19:34:13.070Z,24.01
2022-08-17T19:37:06.873Z,24.00
2022-08-17T19:40:35.115Z,23.95
2022-08-17T19:43:35.326Z,23.84
2022-08-17T19:46:49.983Z,23.86
2022-08-17T19:49:58.222Z,23.81
2022-08-17T19:53:03.485Z,23.79
2022-08-17T19:56:11.218Z,23.77
2022-08-17T19:59:09.059Z,23.72
2022-08-17T20:02:13.606Z,23.57
2022-08-17T20:05:06.369Z,23.48
2022-08-17T20:08:03.066Z,23.48
2022-08-17T20:10:55.423Z,23.50
2022-08-17T20:13:54.850Z,23.51
2022-08-17T20:16:42.154Z,23.53
2022-08-17T20:19:37.223Z,23.49
2022-08-17T20:22:49.675Z,23.46
2022-08-17T20:25:47.611Z,23.41
2022-08-17T20:28:38.814Z,23.36
2022-08-17T20:31:55.449Z,23.33
2022-08-17T20:34:46.383Z,23.33
2022-08-17T20:37:36.101Z,23.24
2022-08-17T20:40:30.514Z,23.29
2022-08-17T20:43:32.706Z,23.22
2022-08-17T20:46:51.299Z,23.15
2022-08-17T20:49:50.579Z,23.17
2022-08-17T20:52:49.089Z,23.06
2022-08-17T20:55:36.373Z,23.05
2022-08-17T20:58:46.438Z,22.97
2022-08-17T21:01:40.454Z,22.92
2022-08-17T21:04:57.495Z,22.82
2022-08-17T21:07:53.079Z,22.78
2022-08-17T21:10:41.801Z,22.72
2022-08-17T21:13:39.945Z,22.73
2022-08-17T21:16:41.215Z,22.68
2022-08-17T21:20:07.621Z,22.65
2022-08-17T21:23:05.141Z,22.63
2022-08-17T21:26:17.213Z,22.62
2022-08-17T21:29:31.858Z,22.54
2022-08-17T21:32:28.939Z,22.52
2022-08-17T21:35:19.173Z,22.48
2022-08-17T21:38:14.768Z,22.42
2022-08-17T21:41:02.040Z,22.36
2022-08-17T21:43:51.409Z,22.27
2022-08-17T21:46:42.786Z,22.24
2022-08-17T21:49:34.982Z,22.26
2022-08-17T21:52:27.373Z,22.36
2022-08-17T21:55:20.237Z,22.30
2022-08-17T21:58:28.758Z,22.13
2022-08-17T22:01:25.844Z,22.07
2022-08-17T22:04:13.093Z,22.10
2022-08-17T22:07:03.816Z,22.04
2022-08-17T22:09:51.070Z,21.95
2022-08-17T22:12:38.414Z,21.99
2022-08-17T22:15:25.670Z,21.96
2022-08-17T22:18:20.920Z,21.90
2022-08-17T22:21:08.783Z,21.92
2022-08-17T22:24:06.894Z,22.03
2022-08-17T22:27:11.410Z,21.96
2022-08-17T22:29:59.651Z,21.98
2022-08-17T22:32:49.278Z,22.01
2022-08-17T22:35:43.712Z,21.86
2022-08-17T22:38:32.106Z,21.81
2022-08-17T22:41:52.193Z,21.74
2022-08-17T22:44:48.552Z,21.88
2022-08-17T22:47:39.354Z,21.67
2022-08-17T22:50:29.142Z,21.60
2022-08-17T22:53:40.037Z,21.51
2022-08-17T22:56:45.915Z,21.53
2022-08-17T22:59:55.429Z,21.47
2022-08-17T23:03:05.614Z,21.47
2022-08-17T23:06:09.506Z,21.48
2022-08-17T23:08:57.611Z,21.45
2022-08-17T23:11:49.726Z,21.48
2022-08-17T23:14:45.662Z,21.48
2022-08-17T23:17:37.070Z,21.34
2022-08-17T23:20:24.975Z,21.25
2022-08-17T23:23:14.016Z,21.29
2022-08-17T23:26:01.613Z,21.33
2022-08-17T23:28:49.400Z,21.25
2022-08-17T23:31:38.502Z,21.29
2022-08-17T23:34:26.310Z,21.42
2022-08-17T23:37:15.030Z,21.35
2022-08-17T23:40:05.279Z,21.21
2022-08-17T23:42:53.024Z,21.15
2022-08-17T23:45:42.662Z,21.08
2022-08-17T23:48:36.110Z,21.07
2022-08-17T23:51:31.365Z,21.06
2022-08-17T23:54:35.023Z,21.13
2022-08-17T23:57:33.927Z,21.17
